createdAt,value
2022-11-29T00:01:56.710Z,87.52
2022-11-29T00:07:17.132Z,87.49
2022-11-29T00:12:37.793Z,87.44
2022-11-29T00:17:58.190Z,87.49
2022-11-29T00:23:19.014Z,87.38
2022-11-29T00:28:39.612Z,87.38
2022-11-29T00:34:02.895Z,87.31
2022-11-29T00:39:23.368Z,87.46
2022-11-29T00:44:44.339Z,87.73
2022-11-29T00:50:06.704Z,87.52
2022-11-29T00:55:27.115Z,87.58
2022-11-29T01:00:47.813Z,87.68
2022-11-29T01:06:12.074Z,87.65
2022-11-29T01:11:33.136Z,87.77
2022-11-29T01:16:53.574Z,87.77
2022-11-29T01:22:14.120Z,87.78
2022-11-29T01:27:35.047Z,87.78
2022-11-29T01:32:55.383Z,87.77
2022-11-29T01:38:16.217Z,87.91
2022-11-29T01:44:00.107Z,87.75
2022-11-29T01:49:26.277Z,87.55
2022-11-29T01:54:49.736Z,87.63
2022-11-29T02:00:14.610Z,87.55
2022-11-29T02:05:38.951Z,87.55
2022-11-29T02:11:16.537Z,87.55
2022-11-29T02:17:10.862Z,87.64
2022-11-29T02:22:49.504Z,87.43
2022-11-29T02:28:30.090Z,87.42
2022-11-29T02:34:35.354Z,87.48
2022-11-29T02:40:15.635Z,87.40
2022-11-29T02:46:08.688Z,87.38
2022-11-29T02:51:56.872Z,87.47
2022-11-29T02:57:29.411Z,87.23
2022-11-29T03:03:15.388Z,87.36
2022-11-29T03:08:54.651Z,87.18
2022-11-29T03:14:24.440Z,87.10
2022-11-29T03:20:06.412Z,87.23
2022-11-29T03:25:37.351Z,87.08
2022-11-29T03:31:16.126Z,87.19
2022-11-29T03:37:03.697Z,87.11
2022-11-29T03:42:32.734Z,87.10
2022-11-29T03:48:01.729Z,86.99
2022-11-29T03:53:34.634Z,86.89
2022-11-29T03:59:03.251Z,86.92
2022-11-29T04:04:57.597Z,86.87
2022-11-29T04:10:49.221Z,87.07
2022-11-29T04:16:29.004Z,87.03
2022-11-29T04:21:53.531Z,86.97
2022-11-29T04:27:40.314Z,86.81
2022-11-29T04:33:35.335Z,86.92
2022-11-29T04:39:04.874Z,86.96
2022-11-29T04:44:45.212Z,87.05
2022-11-29T04:50:20.191Z,86.90
2022-11-29T04:56:08.460Z,86.83
2022-11-29T05:01:50.832Z,86.81
2022-11-29T05:07:25.269Z,86.67
2022-11-29T05:13:00.697Z,86.75
2022-11-29T05:18:30.309Z,86.60
2022-11-29T05:23:58.750Z,86.61
2022-11-29T05:29:34.149Z,86.63
2022-11-29T05:35:25.826Z,86.73
2022-11-29T05:41:09.718Z,86.68
2022-11-29T05:46:54.285Z,86.53
2022-11-29T05:52:24.492Z,86.84
2022-11-29T05:57:57.007Z,86.76
2022-11-29T06:03:39.553Z,86.80
2022-11-29T06:09:14.054Z,86.61
2022-11-29T06:14:57.029Z,86.51
2022-11-29T06:20:23.515Z,86.64
2022-11-29T06:26:29.290Z,86.59
2022-11-29T06:32:16.434Z,86.48
2022-11-29T06:37:50.547Z,86.63
2022-11-29T06:43:11.614Z,86.66
2022-11-29T06:48:45.061Z,86.68
2022-11-29T06:54:27.326Z,86.58
2022-11-29T07:00:17.289Z,86.76
2022-11-29T07:05:38.418Z,86.67
2022-11-29T07:11:00.410Z,86.70
2022-11-29T07:16:27.087Z,86.64
2022-11-29T07:22:26.529Z,86.72
2022-11-29T07:28:01.516Z,86.47
2022-11-29T07:33:41.934Z,86.51
2022-11-29T07:39:33.063Z,86.28
2022-11-29T07:44:59.704Z,86.18
2022-11-29T07:50:20.999Z,85.86
2022-11-29T07:55:41.800Z,85.91
2022-11-29T08:01:03.510Z,85.81
2022-11-29T08:06:26.876Z,85.97
2022-11-29T08:11:48.789Z,85.58
2022-11-29T08:17:09.272Z,85.71
2022-11-29T08:22:30.364Z,85.78
2022-11-29T08:27:51.667Z,85.88
2022-11-29T08:33:12.308Z,85.73
2022-11-29T08:38:32.772Z,85.92
2022-11-29T08:43:53.523Z,85.88
2022-11-29T08:49:14.375Z,85.89
2022-11-29T08:54:34.752Z,85.94
2022-11-29T08:59:55.572Z,85.98
2022-11-29T09:05:16.135Z,86.06
2022-11-29T09:10:38.673Z,85.51
2022-11-29T09:15:59.339Z,85.48
2022-11-29T09:21:19.975Z,85.35
2022-11-29T09:26:42.120Z,85.24
2022-11-29T09:32:03.015Z,85.34
2022-11-29T09:37:23.714Z,85.36
2022-11-29T09:42:54.955Z,85.31
2022-11-29T09:48:34.135Z,85.38
2022-11-29T09:54:26.105Z,85.40
2022-11-29T09:59:51.293Z,85.41
2022-11-29T10:05:23.779Z,85.06
2022-11-29T10:10:47.589Z,84.26
2022-11-29T10:16:19.520Z,83.99
2022-11-29T10:21:43.675Z,83.66
2022-11-29T10:27:21.131Z,83.83
2022-11-29T10:32:45.279Z,84.55
2022-11-29T10:38:29.645Z,84.65
2022-11-29T10:43:48.056Z,84.51
2022-11-29T10:49:28.727Z,84.56
2022-11-29T10:54:53.778Z,84.24
2022-11-29T11:00:15.225Z,83.34
2022-11-29T11:05:36.047Z,83.16
2022-11-29T11:11:01.744Z,82.84
2022-11-29T11:16:25.715Z,82.67
2022-11-29T11:21:46.002Z,82.64
2022-11-29T11:27:06.466Z,81.89
2022-11-29T11:32:27.212Z,81.76
2022-11-29T11:37:57.546Z,81.86
2022-11-29T11:43:21.741Z,82.02
2022-11-29T11:48:42.698Z,82.39
2022-11-29T11:54:03.527Z,82.81
2022-11-29T11:59:26.729Z,83.39
2022-11-29T12:04:48.087Z,83.42
2022-11-29T12:10:19.028Z,83.30
2022-11-29T12:15:42.717Z,82.79
2022-11-29T12:21:13.181Z,82.30
2022-11-29T12:26:58.561Z,81.88
2022-11-29T12:32:42.994Z,81.91
2022-11-29T12:38:21.329Z,82.08
2022-11-29T12:43:51.134Z,81.87
2022-11-29T12:49:44.741Z,82.57
2022-11-29T12:55:50.304Z,82.95
2022-11-29T13:01:37.665Z,82.92
2022-11-29T13:07:29.648Z,83.21
2022-11-29T13:13:03.058Z,83.11
2022-11-29T13:18:44.224Z,83.06
2022-11-29T13:24:19.180Z,82.20
2022-11-29T13:29:40.421Z,81.64
2022-11-29T13:35:18.024Z,82.38
2022-11-29T13:40:45.205Z,82.46
2022-11-29T13:46:23.939Z,82.57
2022-11-29T13:51:45.876Z,82.18
2022-11-29T13:57:09.232Z,82.45
2022-11-29T14:02:31.712Z,82.61
2022-11-29T14:08:23.280Z,82.47
2022-11-29T14:13:49.340Z,82.43
2022-11-29T14:19:10.067Z,82.30
2022-11-29T14:24:35.311Z,82.25
2022-11-29T14:29:56.067Z,82.26
2022-11-29T14:35:43.605Z,82.14
2022-11-29T14:41:19.011Z,82.23
2022-11-29T14:46:39.598Z,81.90
2022-11-29T14:52:19.017Z,82.02
2022-11-29T14:57:58.523Z,82.13
2022-11-29T15:03:37.505Z,81.91
2022-11-29T15:09:05.776Z,81.74
2022-11-29T15:14:46.287Z,81.86
2022-11-29T15:20:22.420Z,81.88
2022-11-29T15:25:48.481Z,81.88
2022-11-29T15:31:13.112Z,81.94
2022-11-29T15:36:34.592Z,81.86
2022-11-29T15:42:10.498Z,81.44
2022-11-29T15:47:31.520Z,81.09
2022-11-29T15:52:59.840Z,81.10
2022-11-29T15:58:21.419Z,81.05
2022-11-29T16:03:45.471Z,80.75
2022-11-29T16:09:12.384Z,80.66
2022-11-29T16:14:33.104Z,80.84
2022-11-29T16:20:25.051Z,80.95
2022-11-29T16:26:21.455Z,81.31
2022-11-29T16:31:42.468Z,81.40
2022-11-29T16:37:06.564Z,81.32
2022-11-29T16:42:33.425Z,81.26
2022-11-29T16:47:58.789Z,81.34
2022-11-29T16:53:37.647Z,81.50
2022-11-29T16:59:26.234Z,81.44
2022-11-29T17:04:44.025Z,81.46
2022-11-29T17:10:07.744Z,81.50
2022-11-29T17:15:28.502Z,81.52
2022-11-29T17:20:49.043Z,81.66
2022-11-29T17:26:09.709Z,81.60
2022-11-29T17:31:31.448Z,81.73
2022-11-29T17:36:51.842Z,81.59
2022-11-29T17:42:12.379Z,81.67
2022-11-29T17:47:33.462Z,81.79
2022-11-29T17:52:53.735Z,81.64
2022-11-29T17:58:14.459Z,81.46
2022-11-29T18:03:40.108Z,81.46
2022-11-29T18:09:02.071Z,81.34
2022-11-29T18:14:23.790Z,81.16
2022-11-29T18:19:44.973Z,81.45
2022-11-29T18:25:36.960Z,81.43
2022-11-29T18:30:47.411Z,81.33
2022-11-29T18:36:11.121Z,81.26
2022-11-29T18:41:32.607Z,81.23
2022-11-29T18:46:53.330Z,81.31
2022-11-29T18:52:15.001Z,81.32
2022-11-29T18:57:35.685Z,81.21
2022-11-29T19:02:56.373Z,81.07
2022-11-29T19:08:17.103Z,81.07
2022-11-29T19:13:38.458Z,81.01
2022-11-29T19:19:00.377Z,80.97
2022-11-29T19:24:21.532Z,80.87
2022-11-29T19:29:42.255Z,81.01
2022-11-29T19:35:03.320Z,81.11
2022-11-29T19:40:23.950Z,81.15
2022-11-29T19:45:44.529Z,81.37
2022-11-29T19:51:07.221Z,81.45
2022-11-29T19:56:29.547Z,81.61
2022-11-29T20:01:50.670Z,81.31
2022-11-29T20:07:11.191Z,81.44
2022-11-29T20:12:32.855Z,81.23
2022-11-29T20:17:53.596Z,81.21
2022-11-29T20:23:14.470Z,81.23
2022-11-29T20:28:35.862Z,81.48
2022-11-29T20:33:57.502Z,81.47
2022-11-29T20:39:48.958Z,81.69
2022-11-29T20:45:12.111Z,81.52
2022-11-29T20:50:33.039Z,81.41
2022-11-29T20:55:53.698Z,81.38
2022-11-29T21:01:14.437Z,81.36
2022-11-29T21:06:39.140Z,81.35
2022-11-29T21:11:59.835Z,81.41
2022-11-29T21:17:20.526Z,81.48
2022-11-29T21:22:46.890Z,81.29
2022-11-29T21:28:13.321Z,81.29
2022-11-29T21:33:34.272Z,81.44
2022-11-29T21:38:55.387Z,81.42
2022-11-29T21:44:16.356Z,81.26
2022-11-29T21:49:36.756Z,81.47
2022-11-29T21:54:57.118Z,81.34
2022-11-29T22:00:19.452Z,81.30
2022-11-29T22:05:40.728Z,81.16
2022-11-29T22:11:09.891Z,81.31
2022-11-29T22:16:30.655Z,81.08
2022-11-29T22:21:53.669Z,81.46
2022-11-29T22:27:14.053Z,81.27
2022-11-29T22:32:34.725Z,81.25
2022-11-29T22:37:55.971Z,81.22
2022-11-29T22:43:16.495Z,81.07
2022-11-29T22:48:39.113Z,80.96
2022-11-29T22:54:01.751Z,81.03
2022-11-29T22:59:22.246Z,81.03
2022-11-29T23:04:42.805Z,81.05
2022-11-29T23:10:03.752Z,81.07
2022-11-29T23:15:24.110Z,80.93
2022-11-29T23:20:44.791Z,81.04
2022-11-29T23:26:08.331Z,80.99
2022-11-29T23:31:29.593Z,80.73
2022-11-29T23:36:53.161Z,80.87
2022-11-29T23:42:14.046Z,80.90
2022-11-29T23:47:34.811Z,80.98
2022-11-29T23:52:56.489Z,81.02
2022-11-29T23:58:16.806Z,81.05
